Time;durP1;ratioP1;P1;durP2;ratioP2;P2;SDS_P1;SDS_P2;PMS_P1;PMS_P2;Temp;Humidity;BMP_temperature;BMP_pressure;BME280_temperature;BME280_humidity;BME280_pressure;Samples;Min_cycle;Max_cycle;Signal;HPM_P1;HPM_P2
2022/01/22 00:01:11;;;;;;;1.23;1.23;;;4.00;99.90;;;;;;5010564;28;20220;-62
2022/01/22 00:03:38;;;;;;;1.10;1.10;;;4.10;99.90;;;;;;5013054;28;20201;-62
2022/01/22 00:06:06;;;;;;;1.20;1.20;;;4.10;99.90;;;;;;5010665;28;20212;-61
2022/01/22 00:08:33;;;;;;;1.23;1.23;;;4.10;99.90;;;;;;5011896;28;20284;-60
2022/01/22 00:11:00;;;;;;;1.23;1.23;;;4.10;99.90;;;;;;5013961;28;20256;-61
2022/01/22 00:16:12;;;;;;;1.50;1.40;;;4.10;99.90;;;;;;5012310;28;22080;-61
2022/01/22 00:18:40;;;;;;;1.17;1.17;;;4.20;99.90;;;;;;5016564;28;20636;-62
2022/01/22 00:21:07;;;;;;;1.10;1.10;;;4.20;99.90;;;;;;5015791;28;20214;-62
2022/01/22 00:23:37;;;;;;;1.57;1.47;;;4.20;99.90;;;;;;5018129;28;20292;-61
2022/01/22 00:26:04;;;;;;;1.10;1.10;;;4.20;99.90;;;;;;5016063;28;20200;-61
2022/01/22 00:28:31;;;;;;;1.37;1.30;;;4.20;99.90;;;;;;5015474;28;20240;-61
2022/01/22 00:30:58;;;;;;;1.20;1.20;;;4.20;99.90;;;;;;5017810;28;20687;-62
2022/01/22 00:33:26;;;;;;;1.20;1.20;;;4.10;99.90;;;;;;5014563;28;20284;-61
2022/01/22 00:35:53;;;;;;;1.60;1.50;;;4.20;99.90;;;;;;5013159;28;20337;-61
2022/01/22 00:38:19;;;;;;;1.37;1.27;;;4.20;99.90;;;;;;5013888;28;20320;-62
2022/01/22 00:40:51;;;;;;;1.20;1.20;;;4.20;99.90;;;;;;5013953;28;20233;-62
2022/01/22 00:43:18;;;;;;;1.10;1.10;;;4.10;99.90;;;;;;5012994;28;20209;-62
2022/01/22 00:45:45;;;;;;;1.10;1.10;;;4.20;99.90;;;;;;5017902;28;20202;-62
2022/01/22 00:48:12;;;;;;;1.30;1.20;;;4.40;99.90;;;;;;5024638;28;20209;-61
2022/01/22 00:50:40;;;;;;;1.50;1.40;;;4.40;99.90;;;;;;5024781;28;20261;-62
2022/01/22 00:53:07;;;;;;;1.50;1.40;;;4.30;99.90;;;;;;5016916;28;20259;-61
2022/01/22 00:55:34;;;;;;;1.10;1.10;;;4.30;99.90;;;;;;5015863;28;20292;-61
2022/01/22 00:58:01;;;;;;;1.13;1.13;;;4.30;99.90;;;;;;5017986;28;20211;-60
2022/01/22 01:00:27;;;;;;;1.27;1.27;;;4.30;99.90;;;;;;5015538;28;20201;-62
2022/01/22 01:02:54;;;;;;;1.40;1.30;;;4.20;99.90;;;;;;5018108;28;20623;-62
2022/01/22 01:05:21;;;;;;;1.17;1.17;;;4.30;99.90;;;;;;5018614;28;20232;-63
2022/01/22 01:07:49;;;;;;;1.33;1.23;;;4.20;99.90;;;;;;5025322;28;20241;-61
2022/01/22 01:10:20;;;;;;;1.13;1.10;;;4.30;99.90;;;;;;5021411;28;20244;-61
2022/01/22 01:12:49;;;;;;;1.00;1.00;;;4.30;99.90;;;;;;5018222;28;20224;-62
2022/01/22 01:15:34;;;;;;;1.10;1.10;;;4.30;99.90;;;;;;5017204;28;20233;-62
2022/01/22 01:32:09;;;;;;;1.07;1.07;;;4.30;99.90;;;;;;5009366;28;20271;-62
2022/01/22 01:34:40;;;;;;;1.10;1.10;;;4.30;99.90;;;;;;5007850;28;20267;-62
2022/01/22 01:37:08;;;;;;;1.03;1.03;;;4.20;99.90;;;;;;5005811;28;20628;-62
2022/01/22 01:39:38;;;;;;;1.00;1.00;;;4.10;99.90;;;;;;5005404;28;20272;-60
2022/01/22 01:42:08;;;;;;;1.00;1.00;;;4.20;99.90;;;;;;5003673;28;20221;-61
2022/01/22 01:44:36;;;;;;;1.00;1.00;;;4.20;99.90;;;;;;5003372;28;20279;-62
2022/01/22 01:47:06;;;;;;;1.20;1.20;;;4.20;99.90;;;;;;5003043;28;20866;-61
2022/01/22 01:49:33;;;;;;;1.10;1.10;;;4.30;99.90;;;;;;5002264;28;20551;-62
2022/01/22 01:52:03;;;;;;;1.00;1.00;;;4.30;99.90;;;;;;5005978;28;20685;-62
2022/01/22 01:54:37;;;;;;;1.23;1.13;;;4.30;99.90;;;;;;5013255;28;20206;-61
2022/01/22 01:57:31;;;;;;;1.00;1.00;;;4.30;99.90;;;;;;5010415;28;20209;-62
2022/01/22 02:00:00;;;;;;;1.03;1.03;;;4.30;99.90;;;;;;5013277;28;20210;-62
2022/01/22 02:02:29;;;;;;;1.00;1.00;;;4.30;99.90;;;;;;5013283;28;20871;-61
2022/01/22 02:04:56;;;;;;;0.93;0.93;;;4.30;99.90;;;;;;5008215;28;20197;-61
2022/01/22 02:07:23;;;;;;;1.07;1.07;;;4.30;99.90;;;;;;5007380;28;20579;-60
2022/01/22 02:09:50;;;;;;;0.90;0.90;;;4.30;99.90;;;;;;5009883;28;20740;-59
2022/01/22 02:12:34;;;;;;;0.97;0.97;;;4.30;99.90;;;;;;5009479;28;20229;-61
2022/01/22 02:23:35;;;;;;;0.97;0.97;;;4.40;99.90;;;;;;5011050;28;20193;-61
2022/01/22 02:26:02;;;;;;;1.10;1.03;;;4.30;99.90;;;;;;5027934;28;20220;-61
2022/01/22 02:28:29;;;;;;;0.90;0.90;;;4.30;99.90;;;;;;5009089;28;20289;-60
2022/01/22 02:31:02;;;;;;;1.00;1.00;;;4.20;99.90;;;;;;5023266;28;20297;-62
2022/01/22 02:33:35;;;;;;;0.90;0.90;;;4.20;99.90;;;;;;5029414;28;20201;-62
2022/01/22 02:36:12;;;;;;;1.30;1.20;;;4.10;99.90;;;;;;5025645;28;20597;-61
2022/01/22 02:38:48;;;;;;;0.93;0.93;;;4.10;99.90;;;;;;5019948;28;20241;-63
2022/01/22 02:41:18;;;;;;;0.90;0.90;;;4.00;99.90;;;;;;5023397;28;20221;-62
2022/01/22 02:43:47;;;;;;;0.90;0.90;;;3.90;99.90;;;;;;5016243;28;20208;-61
2022/01/22 02:46:16;;;;;;;0.80;0.80;;;4.00;99.90;;;;;;5013380;28;20206;-61
2022/01/22 02:48:43;;;;;;;1.00;1.00;;;4.00;99.90;;;;;;5001849;28;20745;-60
2022/01/22 02:51:10;;;;;;;0.90;0.90;;;4.00;99.90;;;;;;5004310;28;20742;-61
2022/01/22 02:53:37;;;;;;;0.83;0.83;;;4.10;99.90;;;;;;5001150;28;20634;-60
2022/01/22 02:56:06;;;;;;;1.07;1.07;;;4.10;99.90;;;;;;5003932;28;20673;-60
2022/01/22 02:58:33;;;;;;;1.10;1.10;;;4.10;99.90;;;;;;5000420;28;20704;-62
2022/01/22 03:01:00;;;;;;;0.90;0.90;;;4.00;99.90;;;;;;5008298;28;20308;-62
2022/01/22 03:03:27;;;;;;;1.00;1.00;;;4.00;99.90;;;;;;5011613;28;20300;-61
2022/01/22 03:05:54;;;;;;;0.90;0.90;;;4.00;99.90;;;;;;5010231;28;20316;-61
2022/01/22 03:08:24;;;;;;;0.90;0.90;;;4.00;99.90;;;;;;5011374;28;20752;-61
2022/01/22 03:10:53;;;;;;;0.83;0.83;;;4.00;99.90;;;;;;5015982;28;20217;-61
2022/01/22 03:14:01;;;;;;;1.10;1.10;;;4.10;99.90;;;;;;5013084;28;20751;-62
2022/01/22 03:16:29;;;;;;;1.10;1.10;;;4.10;99.90;;;;;;5016640;28;20831;-61
2022/01/22 03:19:01;;;;;;;1.20;1.20;;;4.10;99.90;;;;;;5017600;28;20193;-62
2022/01/22 03:21:39;;;;;;;1.10;1.10;;;4.10;99.90;;;;;;5015268;28;20229;-61
2022/01/22 03:29:38;;;;;;;1.23;1.23;;;4.20;99.90;;;;;;5007590;28;20250;-61
2022/01/22 03:32:07;;;;;;;1.30;1.30;;;4.20;99.90;;;;;;5011983;28;20248;-60
2022/01/22 03:34:40;;;;;;;1.33;1.23;;;4.20;99.90;;;;;;5012599;28;20759;-62
2022/01/22 03:37:07;;;;;;;1.13;1.13;;;4.20;99.90;;;;;;5012336;28;20205;-61
2022/01/22 03:39:34;;;;;;;1.10;1.10;;;4.20;99.90;;;;;;5011891;28;20201;-62
2022/01/22 03:42:01;;;;;;;1.40;1.30;;;4.10;99.90;;;;;;5011734;28;20224;-62
2022/01/22 03:44:27;;;;;;;1.10;1.10;;;4.10;99.90;;;;;;5011473;28;20204;-61
2022/01/22 03:46:56;;;;;;;1.20;1.20;;;4.10;99.90;;;;;;5011078;28;20304;-61
2022/01/22 03:49:22;;;;;;;1.33;1.23;;;4.10;99.90;;;;;;5012707;28;20201;-61
2022/01/22 03:51:49;;;;;;;1.07;1.07;;;4.00;99.90;;;;;;5012740;28;20227;-61
2022/01/22 03:54:16;;;;;;;1.20;1.20;;;3.90;99.90;;;;;;5012031;28;20217;-61
2022/01/22 03:56:46;;;;;;;1.20;1.20;;;4.00;99.90;;;;;;5012220;28;20668;-62
2022/01/22 03:59:14;;;;;;;1.27;1.27;;;3.90;99.90;;;;;;5011456;28;20206;-61
2022/01/22 04:02:13;;;;;;;1.10;1.10;;;3.90;99.90;;;;;;5010688;28;20217;-62
2022/01/22 04:04:45;;;;;;;1.03;1.03;;;3.90;99.90;;;;;;5010498;28;20212;-61
2022/01/22 04:10:01;;;;;;;0.80;0.80;;;4.10;99.90;;;;;;5010606;28;20199;-62
2022/01/22 04:12:36;;;;;;;1.20;1.20;;;4.00;99.90;;;;;;5010667;28;20311;-61
2022/01/22 04:15:05;;;;;;;0.90;0.90;;;4.10;99.90;;;;;;5010298;28;20715;-61
2022/01/22 04:25:57;;;;;;;0.90;0.90;;;4.10;99.90;;;;;;5011206;28;20575;-62
2022/01/22 04:28:24;;;;;;;1.23;1.13;;;4.10;99.90;;;;;;5011770;28;20212;-61
2022/01/22 04:30:50;;;;;;;1.10;1.10;;;4.20;99.90;;;;;;5011349;28;20233;-62
2022/01/22 04:33:18;;;;;;;1.00;1.00;;;4.20;99.90;;;;;;5012051;28;20225;-61
2022/01/22 04:35:46;;;;;;;1.10;1.10;;;4.10;99.90;;;;;;5015020;28;20205;-62
2022/01/22 04:38:13;;;;;;;1.07;1.07;;;4.20;99.90;;;;;;5015262;28;20209;-62
2022/01/22 04:40:40;;;;;;;1.00;1.00;;;4.20;99.90;;;;;;5015170;28;20601;-62
2022/01/22 04:43:07;;;;;;;0.80;0.80;;;4.20;99.90;;;;;;5014987;28;20229;-62
2022/01/22 04:45:48;;;;;;;1.00;1.00;;;4.30;99.90;;;;;;5017980;28;20209;-62
2022/01/22 04:48:27;;;;;;;1.20;1.20;;;4.40;99.90;;;;;;5030233;28;20205;-61
2022/01/22 04:56:24;;;;;;;1.00;1.00;;;4.50;99.90;;;;;;5015639;28;20188;-61
2022/01/22 04:58:51;;;;;;;0.97;0.97;;;4.60;99.90;;;;;;5014391;28;20228;-62
2022/01/22 05:01:18;;;;;;;1.00;1.00;;;4.50;99.90;;;;;;5014254;28;20316;-62
2022/01/22 05:03:45;;;;;;;1.20;1.20;;;4.40;99.90;;;;;;5014212;28;20208;-62
2022/01/22 05:06:13;;;;;;;1.00;1.00;;;4.40;99.90;;;;;;5013739;28;20209;-63
2022/01/22 05:08:40;;;;;;;1.40;1.30;;;4.30;99.90;;;;;;5013521;28;20228;-61
2022/01/22 05:11:08;;;;;;;1.20;1.20;;;4.40;99.90;;;;;;5013436;28;20657;-61
2022/01/22 05:13:35;;;;;;;1.30;1.20;;;4.40;99.90;;;;;;5013484;28;20205;-61
2022/01/22 05:16:02;;;;;;;1.10;1.10;;;4.40;99.90;;;;;;5013166;28;20645;-62
2022/01/22 05:18:28;;;;;;;1.47;1.37;;;4.30;99.90;;;;;;5013516;28;20255;-62
2022/01/22 05:21:05;;;;;;;0.90;0.90;;;4.30;99.90;;;;;;5013110;28;20732;-62
2022/01/22 05:23:35;;;;;;;1.10;1.10;;;4.20;99.90;;;;;;5013605;28;20200;-65
2022/01/22 05:26:05;;;;;;;1.20;1.20;;;4.20;99.90;;;;;;5013477;28;20217;-62
2022/01/22 05:31:32;;;;;;;1.30;1.30;;;4.20;99.90;;;;;;5008173;28;20232;-60
2022/01/22 05:36:59;;;;;;;1.20;1.20;;;4.20;99.90;;;;;;5004088;28;20284;-62
2022/01/22 05:39:29;;;;;;;1.30;1.20;;;4.30;99.90;;;;;;5014073;28;20196;-62
2022/01/22 05:41:57;;;;;;;1.00;1.00;;;4.20;99.90;;;;;;5013906;28;20595;-61
2022/01/22 05:44:24;;;;;;;1.23;1.23;;;4.30;99.90;;;;;;5013255;28;20304;-62
2022/01/22 05:46:53;;;;;;;1.13;1.13;;;4.20;99.90;;;;;;5013021;28;20843;-62
2022/01/22 05:49:22;;;;;;;1.13;1.13;;;4.30;99.90;;;;;;5013547;28;20243;-62
2022/01/22 05:51:51;;;;;;;1.33;1.27;;;4.40;99.90;;;;;;5013023;28;20225;-62
2022/01/22 05:54:48;;;;;;;1.60;1.50;;;4.40;99.90;;;;;;5013279;28;20212;-61
2022/01/22 06:00:01;;;;;;;1.17;1.17;;;4.50;99.90;;;;;;5018262;28;20605;-60
2022/01/22 06:02:28;;;;;;;1.40;1.30;;;4.60;99.90;;;;;;5012991;28;20659;-61
2022/01/22 06:04:54;;;;;;;1.30;1.30;;;4.50;99.90;;;;;;5012859;28;20248;-61
2022/01/22 06:07:21;;;;;;;1.60;1.50;;;4.60;99.90;;;;;;5013612;28;20209;-61
2022/01/22 06:10:05;;;;;;;1.30;1.30;;;4.60;99.90;;;;;;5013333;28;20364;-61
2022/01/22 06:12:46;;;;;;;1.10;1.10;;;4.60;99.90;;;;;;5013148;28;20332;-60
2022/01/22 06:15:13;;;;;;;1.50;1.40;;;4.60;99.90;;;;;;5013081;28;20213;-60
2022/01/22 06:17:40;;;;;;;1.20;1.20;;;4.60;99.90;;;;;;5013257;28;20202;-61
2022/01/22 06:20:12;;;;;;;1.40;1.30;;;4.60;99.90;;;;;;5013266;28;20205;-61
2022/01/22 06:22:39;;;;;;;1.40;1.30;;;4.50;99.90;;;;;;5013347;28;20596;-62
2022/01/22 06:25:07;;;;;;;1.37;1.33;;;4.50;99.90;;;;;;5012839;28;20210;-60
2022/01/22 06:27:35;;;;;;;1.50;1.40;;;4.40;99.90;;;;;;5013218;28;20548;-61
2022/01/22 06:30:03;;;;;;;1.20;1.20;;;4.50;99.90;;;;;;5012767;28;20213;-60
2022/01/22 06:32:30;;;;;;;1.20;1.20;;;4.50;99.90;;;;;;5012588;28;20316;-61
2022/01/22 06:34:57;;;;;;;1.20;1.20;;;4.60;99.90;;;;;;5012413;28;20292;-60
2022/01/22 06:37:24;;;;;;;1.40;1.30;;;4.60;99.90;;;;;;5012243;28;20296;-60
2022/01/22 06:41:44;;;;;;;1.10;1.10;;;4.60;99.90;;;;;;5012551;28;20284;-60
2022/01/22 06:42:51;;;;;;;1.20;1.20;;;4.60;99.90;;;;;;5014353;28;20279;-61
2022/01/22 06:45:18;;;;;;;1.10;1.10;;;4.60;99.90;;;;;;5012328;28;20267;-60
2022/01/22 06:47:44;;;;;;;1.10;1.10;;;4.60;99.90;;;;;;5012307;28;20205;-60
2022/01/22 06:50:11;;;;;;;1.50;1.40;;;4.60;99.90;;;;;;5012168;28;20220;-62
2022/01/22 06:52:39;;;;;;;1.30;1.30;;;4.50;99.90;;;;;;5011982;28;20257;-59
2022/01/22 06:55:08;;;;;;;1.50;1.40;;;4.40;99.90;;;;;;5011733;28;20217;-61
2022/01/22 06:57:35;;;;;;;1.60;1.50;;;4.40;99.90;;;;;;5014822;28;20205;-61
2022/01/22 07:00:04;;;;;;;1.27;1.27;;;4.40;99.90;;;;;;5011517;28;20225;-61
2022/01/22 07:02:31;;;;;;;1.40;1.30;;;4.40;99.90;;;;;;5011356;28;20253;-60
2022/01/22 07:04:58;;;;;;;1.43;1.33;;;4.40;99.90;;;;;;5011625;28;20292;-61
2022/01/22 07:07:25;;;;;;;1.33;1.33;;;4.40;99.90;;;;;;5012591;28;20291;-61
2022/01/22 07:09:52;;;;;;;1.37;1.33;;;4.40;99.90;;;;;;5012324;28;20205;-62
2022/01/22 07:12:19;;;;;;;1.60;1.50;;;4.40;99.90;;;;;;5012105;28;20221;-60
2022/01/22 07:14:49;;;;;;;1.63;1.50;;;4.50;99.90;;;;;;5011695;28;20300;-60
2022/01/22 07:17:18;;;;;;;1.70;1.60;;;4.50;99.90;;;;;;5012512;28;20209;-61
2022/01/22 07:19:45;;;;;;;1.60;1.50;;;4.40;99.90;;;;;;5012527;28;20209;-62
2022/01/22 07:22:33;;;;;;;1.80;1.70;;;4.40;99.90;;;;;;5012106;28;20225;-63
2022/01/22 07:25:00;;;;;;;1.70;1.60;;;4.40;99.90;;;;;;5012299;28;20205;-60
2022/01/22 07:27:26;;;;;;;2.00;1.90;;;4.40;99.90;;;;;;5011910;28;20205;-61
2022/01/22 07:29:53;;;;;;;1.80;1.70;;;4.40;99.90;;;;;;5011939;28;20206;-61
2022/01/22 07:32:30;;;;;;;1.57;1.47;;;4.40;99.90;;;;;;5011917;28;20233;-61
2022/01/22 07:34:57;;;;;;;1.90;1.80;;;4.40;99.90;;;;;;5008302;28;20665;-60
2022/01/22 07:37:24;;;;;;;2.03;1.93;;;4.40;99.90;;;;;;4999996;28;20289;-61
2022/01/22 07:39:51;;;;;;;1.90;1.80;;;4.40;99.90;;;;;;5002837;28;20289;-62
2022/01/22 07:42:18;;;;;;;1.67;1.57;;;4.50;99.90;;;;;;5006306;28;20304;-62
2022/01/22 07:44:45;;;;;;;1.67;1.57;;;4.50;99.90;;;;;;5010101;28;20293;-62
2022/01/22 07:47:12;;;;;;;2.00;1.90;;;4.50;99.90;;;;;;5024598;28;20299;-61
2022/01/22 07:49:40;;;;;;;2.80;1.90;;;4.50;99.90;;;;;;5031587;28;20223;-60
2022/01/22 07:52:08;;;;;;;2.17;2.07;;;4.50;99.90;;;;;;5032280;28;20230;-61
2022/01/22 07:54:36;;;;;;;2.43;2.33;;;4.50;99.90;;;;;;5032256;28;20221;-59
2022/01/22 07:57:03;;;;;;;2.53;2.40;;;4.50;99.90;;;;;;5031452;28;20974;-61
2022/01/22 07:59:32;;;;;;;2.00;1.80;;;4.50;99.90;;;;;;5030956;28;20287;-60
2022/01/22 08:01:59;;;;;;;2.10;2.00;;;4.50;99.90;;;;;;5030729;28;20275;-61
2022/01/22 08:04:26;;;;;;;2.07;1.97;;;4.50;99.90;;;;;;5031370;28;20240;-60
2022/01/22 08:06:56;;;;;;;2.07;1.97;;;4.40;99.90;;;;;;5031089;28;20283;-60
2022/01/22 08:09:23;;;;;;;1.90;1.80;;;4.50;99.90;;;;;;5033357;28;20240;-60
2022/01/22 08:11:49;;;;;;;2.00;1.90;;;4.60;99.90;;;;;;5034612;28;20235;-62
2022/01/22 08:14:17;;;;;;;2.20;2.10;;;4.60;99.90;;;;;;5034329;28;20234;-62
2022/01/22 08:16:46;;;;;;;1.90;1.80;;;4.60;99.90;;;;;;5034386;28;20679;-60
2022/01/22 08:19:14;;;;;;;1.80;1.70;;;4.60;99.90;;;;;;5034961;28;20232;-60
2022/01/22 08:21:41;;;;;;;2.00;1.90;;;4.60;99.90;;;;;;5016737;28;20746;-60
2022/01/22 08:24:10;;;;;;;1.70;1.60;;;4.70;99.90;;;;;;5026065;28;20239;-60
2022/01/22 08:26:43;;;;;;;2.40;2.20;;;4.80;99.90;;;;;;5034652;28;20262;-59
2022/01/22 08:29:10;;;;;;;2.30;2.20;;;4.80;99.90;;;;;;5037095;28;20216;-60
2022/01/22 08:31:51;;;;;;;2.30;2.20;;;4.90;99.90;;;;;;5040996;28;20304;-60
2022/01/22 08:37:02;;;;;;;2.30;2.20;;;4.80;99.90;;;;;;5056509;28;20252;-62
2022/01/22 08:39:31;;;;;;;2.30;2.20;;;4.80;99.90;;;;;;5053190;28;20209;-61
2022/01/22 08:41:57;;;;;;;2.87;2.53;;;4.80;99.90;;;;;;5044168;28;20252;-61
2022/01/22 08:44:24;;;;;;;2.40;2.30;;;4.60;99.90;;;;;;5052078;22;20732;-65
2022/01/22 08:46:51;;;;;;;2.40;2.30;;;4.60;99.90;;;;;;5045640;28;20246;-65
2022/01/22 08:49:19;;;;;;;2.30;2.20;;;4.60;99.90;;;;;;5055215;28;20559;-65
2022/01/22 08:51:46;;;;;;;2.30;2.20;;;4.60;99.90;;;;;;5056983;28;20219;-64
2022/01/22 08:54:13;;;;;;;2.37;2.20;;;4.60;99.90;;;;;;5057430;28;20232;-66
2022/01/22 08:56:41;;;;;;;2.20;2.10;;;4.60;99.90;;;;;;5061184;28;20295;-63
2022/01/22 08:59:09;;;;;;;2.20;2.10;;;4.60;99.90;;;;;;5057798;28;20204;-66
2022/01/22 09:01:38;;;;;;;2.10;2.00;;;4.70;99.90;;;;;;5054942;28;20306;-63
2022/01/22 09:04:05;;;;;;;2.10;2.00;;;4.70;99.90;;;;;;5054179;28;20307;-64
2022/01/22 09:06:32;;;;;;;2.73;2.53;;;4.70;99.90;;;;;;5054802;28;20211;-65
2022/01/22 09:09:08;;;;;;;2.00;1.90;;;4.70;99.90;;;;;;5055592;28;20296;-64
2022/01/22 09:11:35;;;;;;;2.13;2.03;;;4.80;99.90;;;;;;5055106;28;20521;-67
2022/01/22 09:14:05;;;;;;;1.87;1.77;;;4.70;99.90;;;;;;5056187;28;20224;-62
2022/01/22 09:16:33;;;;;;;2.00;1.90;;;4.80;99.90;;;;;;5055001;28;20231;-64
2022/01/22 09:19:06;;;;;;;2.40;2.20;;;4.80;99.90;;;;;;5054992;28;20742;-64
2022/01/22 09:21:33;;;;;;;2.00;1.90;;;4.80;99.90;;;;;;5053390;28;20294;-64
2022/01/22 09:24:00;;;;;;;2.13;2.03;;;4.90;99.90;;;;;;5054248;28;20224;-63
2022/01/22 09:26:28;;;;;;;2.20;2.10;;;4.90;99.90;;;;;;5059169;28;20318;-64
2022/01/22 09:28:55;;;;;;;2.20;2.10;;;4.80;99.90;;;;;;5058337;28;20277;-64
2022/01/22 09:31:24;;;;;;;2.10;2.00;;;4.80;99.90;;;;;;5050771;28;20824;-63
2022/01/22 09:33:51;;;;;;;2.20;2.10;;;4.80;99.90;;;;;;5045956;28;20732;-64
2022/01/22 09:36:18;;;;;;;2.33;2.20;;;4.80;99.90;;;;;;5051716;28;20220;-64
2022/01/22 09:38:45;;;;;;;2.10;2.00;;;4.80;99.90;;;;;;5038234;28;20229;-63
2022/01/22 09:41:14;;;;;;;2.40;2.30;;;4.90;99.90;;;;;;5041002;28;20240;-63
2022/01/22 09:43:41;;;;;;;2.07;1.97;;;4.80;99.90;;;;;;5033550;28;20316;-66
2022/01/22 09:46:09;;;;;;;2.30;2.17;;;4.70;99.90;;;;;;5035422;28;20295;-64
2022/01/22 09:48:42;;;;;;;2.13;2.03;;;4.80;99.90;;;;;;5048259;28;20666;-62
2022/01/22 09:51:09;;;;;;;2.20;2.10;;;4.90;99.90;;;;;;5044987;28;20242;-63
2022/01/22 09:53:36;;;;;;;2.20;2.10;;;4.80;99.90;;;;;;5050312;28;20306;-64
2022/01/22 09:56:03;;;;;;;2.50;2.30;;;4.80;99.90;;;;;;5053505;28;20203;-65
2022/01/22 09:58:30;;;;;;;2.00;1.90;;;4.80;99.90;;;;;;5064731;28;20219;-65
2022/01/22 10:01:22;;;;;;;2.03;1.93;;;4.90;99.90;;;;;;5049655;28;20216;-64
2022/01/22 10:03:52;;;;;;;2.60;2.40;;;4.90;99.90;;;;;;5052962;28;20220;-66
2022/01/22 10:06:20;;;;;;;2.30;2.20;;;5.00;99.90;;;;;;5053732;28;20201;-65
2022/01/22 10:08:48;;;;;;;2.40;2.30;;;4.90;99.90;;;;;;5037154;28;20288;-65
2022/01/22 10:11:20;;;;;;;2.37;2.27;;;5.00;99.90;;;;;;5036483;28;20251;-65
2022/01/22 10:13:48;;;;;;;2.47;2.30;;;5.00;99.90;;;;;;5044057;28;20228;-66
2022/01/22 10:16:23;;;;;;;2.10;2.00;;;5.00;99.90;;;;;;5044609;28;20316;-64
2022/01/22 10:19:15;;;;;;;2.40;2.20;;;5.10;99.90;;;;;;5033623;28;20228;-64
2022/01/22 10:21:43;;;;;;;2.30;2.20;;;5.00;99.90;;;;;;5043491;28;20215;-65
2022/01/22 10:24:35;;;;;;;2.20;2.10;;;5.10;99.90;;;;;;5033435;28;20216;-63
2022/01/22 10:27:23;;;;;;;2.10;2.00;;;5.00;99.90;;;;;;5052539;28;20281;-63
2022/01/22 10:29:53;;;;;;;2.10;2.00;;;5.10;99.90;;;;;;5051790;28;20196;-65
2022/01/22 10:32:25;;;;;;;2.10;2.00;;;5.10;99.90;;;;;;5045140;28;20222;-66
2022/01/22 10:35:04;;;;;;;1.90;1.80;;;5.20;99.90;;;;;;5035440;28;20244;-65
2022/01/22 10:37:31;;;;;;;1.87;1.77;;;5.20;99.90;;;;;;5041558;28;20662;-64
2022/01/22 10:40:19;;;;;;;1.90;1.80;;;5.30;99.90;;;;;;5041011;28;20216;-65
2022/01/22 10:42:46;;;;;;;2.00;1.90;;;5.30;99.90;;;;;;5041021;28;20710;-65
2022/01/22 10:45:23;;;;;;;2.00;1.90;;;5.30;99.90;;;;;;5033676;28;20205;-66
2022/01/22 10:47:50;;;;;;;2.07;1.97;;;5.40;99.90;;;;;;5035187;28;20294;-66
2022/01/22 10:50:20;;;;;;;2.00;1.90;;;5.40;99.90;;;;;;5029722;28;20295;-64
2022/01/22 10:52:49;;;;;;;2.33;2.23;;;5.50;99.90;;;;;;5033478;28;20311;-64
2022/01/22 10:55:15;;;;;;;2.20;2.10;;;5.50;99.90;;;;;;5051844;28;20953;-68
2022/01/22 10:58:06;;;;;;;2.23;2.03;;;5.60;99.90;;;;;;5044136;28;20745;-65
2022/01/22 11:00:33;;;;;;;2.10;2.00;;;5.60;99.90;;;;;;5047518;28;20199;-65
2022/01/22 11:03:00;;;;;;;1.80;1.70;;;5.60;99.90;;;;;;5052852;28;20342;-64
2022/01/22 11:05:39;;;;;;;2.17;2.07;;;5.60;99.90;;;;;;5052735;28;20289;-63
2022/01/22 11:08:09;;;;;;;2.03;1.93;;;5.70;99.90;;;;;;5056756;28;20219;-63
2022/01/22 11:10:36;;;;;;;2.20;2.10;;;5.70;99.90;;;;;;5052318;28;20677;-64
2022/01/22 11:13:03;;;;;;;2.23;2.13;;;5.70;99.90;;;;;;5051488;28;20765;-64
2022/01/22 11:15:30;;;;;;;2.10;1.97;;;5.80;99.90;;;;;;5051223;28;20759;-64
2022/01/22 11:17:59;;;;;;;2.10;2.00;;;5.90;99.90;;;;;;5042418;28;20632;-65
2022/01/22 11:20:26;;;;;;;2.27;2.17;;;6.10;99.90;;;;;;5031574;28;20606;-65
2022/01/22 11:22:56;;;;;;;2.10;2.00;;;6.20;99.90;;;;;;5030575;28;20220;-65
2022/01/22 11:25:24;;;;;;;2.10;2.00;;;6.20;99.90;;;;;;5030145;28;20231;-64
2022/01/22 11:27:51;;;;;;;1.93;1.83;;;6.20;99.90;;;;;;5031888;28;20522;-66
2022/01/22 11:30:19;;;;;;;1.80;1.70;;;6.30;99.90;;;;;;5030884;28;20213;-65
2022/01/22 11:32:49;;;;;;;2.20;2.10;;;6.30;99.90;;;;;;5034068;28;20667;-64
2022/01/22 11:35:21;;;;;;;1.80;1.70;;;6.30;99.90;;;;;;5034582;28;20252;-66
2022/01/22 11:37:51;;;;;;;2.20;2.00;;;6.40;99.90;;;;;;5036301;28;20207;-64
2022/01/22 11:40:22;;;;;;;1.90;1.80;;;6.40;99.90;;;;;;5033485;28;20682;-65
2022/01/22 11:42:57;;;;;;;1.80;1.70;;;6.50;99.90;;;;;;5032403;28;20312;-64
2022/01/22 11:45:28;;;;;;;2.10;2.00;;;6.50;99.90;;;;;;5033220;28;20204;-64
2022/01/22 11:48:10;;;;;;;1.60;1.50;;;6.50;99.90;;;;;;5033374;28;20196;-65
2022/01/22 11:50:38;;;;;;;2.00;1.90;;;6.60;99.90;;;;;;5032399;28;20292;-65
2022/01/22 11:53:24;;;;;;;1.77;1.67;;;6.60;99.90;;;;;;5032039;28;20224;-63
2022/01/22 11:56:19;;;;;;;1.80;1.70;;;6.60;99.90;;;;;;5032190;28;20192;-65
2022/01/22 11:59:24;;;;;;;2.00;1.90;;;6.60;99.90;;;;;;5032409;28;20200;-65
2022/01/22 12:02:02;;;;;;;2.10;1.90;;;6.50;99.90;;;;;;5031499;28;20235;-65
2022/01/22 12:04:46;;;;;;;1.57;1.50;;;6.50;99.90;;;;;;5036687;28;20248;-66
2022/01/22 12:07:18;;;;;;;1.97;1.77;;;6.50;99.90;;;;;;5033439;28;20207;-63
2022/01/22 12:09:53;;;;;;;1.97;1.87;;;6.70;99.90;;;;;;5039899;28;20204;-63
2022/01/22 12:15:15;;;;;;;1.80;1.70;;;6.60;99.90;;;;;;5034701;28;20236;-63
2022/01/22 12:18:10;;;;;;;1.70;1.60;;;6.60;99.90;;;;;;5034899;28;20208;-65
2022/01/22 12:23:49;;;;;;;1.67;1.57;;;6.60;99.90;;;;;;5042779;28;20270;-64
2022/01/22 12:26:16;;;;;;;1.90;1.80;;;6.70;99.90;;;;;;5036950;28;20205;-64
2022/01/22 12:28:48;;;;;;;1.70;1.60;;;6.80;99.90;;;;;;5044500;28;20236;-65
2022/01/22 12:31:18;;;;;;;1.70;1.60;;;6.80;99.90;;;;;;5034919;28;20204;-63
2022/01/22 12:33:48;;;;;;;1.67;1.57;;;6.70;99.90;;;;;;5040615;28;20238;-64
2022/01/22 12:36:21;;;;;;;1.53;1.50;;;6.80;99.90;;;;;;5045318;28;20286;-64
2022/01/22 12:39:01;;;;;;;1.80;1.70;;;6.80;99.90;;;;;;5052657;28;20192;-64
2022/01/22 12:41:32;;;;;;;1.70;1.60;;;6.80;99.90;;;;;;5068156;28;20199;-68
2022/01/22 12:44:10;;;;;;;1.63;1.53;;;6.80;99.90;;;;;;5064121;28;20259;-66
2022/01/22 12:46:38;;;;;;;1.80;1.70;;;6.90;99.90;;;;;;5060441;28;20200;-64
2022/01/22 12:49:07;;;;;;;1.80;1.70;;;7.10;99.90;;;;;;5047178;28;20205;-67
2022/01/22 12:51:35;;;;;;;1.73;1.63;;;6.90;99.90;;;;;;5043777;28;20201;-66
2022/01/22 12:54:03;;;;;;;1.77;1.67;;;6.90;99.90;;;;;;5044391;28;20790;-66
2022/01/22 12:56:51;;;;;;;1.80;1.70;;;6.90;99.90;;;;;;5053332;28;20219;-64
2022/01/22 12:59:19;;;;;;;1.80;1.70;;;6.90;99.90;;;;;;5047670;28;20247;-64
2022/01/22 13:01:51;;;;;;;1.87;1.77;;;6.90;99.90;;;;;;5054891;28;20207;-64
2022/01/22 13:04:21;;;;;;;1.73;1.63;;;6.90;99.90;;;;;;5060909;28;20251;-65
2022/01/22 13:06:51;;;;;;;1.77;1.67;;;6.90;99.90;;;;;;5065831;28;20192;-65
2022/01/22 13:09:18;;;;;;;1.80;1.70;;;6.90;99.90;;;;;;5061706;28;20230;-63
2022/01/22 13:11:49;;;;;;;1.70;1.60;;;6.90;99.90;;;;;;5057226;28;20289;-64
2022/01/22 13:14:17;;;;;;;1.70;1.60;;;6.90;99.90;;;;;;5055916;28;20706;-64
2022/01/22 13:16:50;;;;;;;1.77;1.67;;;6.90;99.90;;;;;;5055193;28;20242;-64
2022/01/22 13:19:18;;;;;;;1.90;1.80;;;6.90;99.90;;;;;;5054983;28;20289;-64
2022/01/22 13:21:53;;;;;;;1.60;1.50;;;6.90;99.90;;;;;;5055298;28;20235;-63
2022/01/22 13:24:26;;;;;;;1.90;1.80;;;7.00;99.90;;;;;;5054858;28;20748;-63
2022/01/22 13:26:58;;;;;;;1.93;1.83;;;7.00;99.90;;;;;;5055809;28;20226;-63
2022/01/22 13:29:27;;;;;;;1.97;1.87;;;7.00;99.90;;;;;;5059850;28;20275;-64
2022/01/22 13:32:21;;;;;;;1.70;1.60;;;6.90;99.90;;;;;;5060107;28;20572;-65
2022/01/22 13:35:02;;;;;;;1.60;1.50;;;6.90;99.90;;;;;;5057454;28;20211;-64
2022/01/22 13:48:48;;;;;;;1.90;1.80;;;6.80;99.90;;;;;;5033263;28;20192;-63
2022/01/22 13:51:15;;;;;;;2.07;1.97;;;6.70;99.90;;;;;;5043955;28;20239;-62
2022/01/22 13:53:46;;;;;;;2.00;1.90;;;6.70;99.90;;;;;;5032877;28;20223;-65
2022/01/22 13:56:13;;;;;;;2.27;2.07;;;6.70;99.90;;;;;;5031194;28;20559;-65
2022/01/22 13:58:40;;;;;;;1.97;1.87;;;6.60;99.90;;;;;;5034245;28;20219;-63
2022/01/22 14:01:17;;;;;;;1.83;1.73;;;6.60;99.90;;;;;;5033925;28;20291;-66
2022/01/22 14:03:45;;;;;;;1.93;1.83;;;6.70;99.90;;;;;;5034344;28;20308;-63
2022/01/22 14:06:15;;;;;;;2.30;2.10;;;6.70;99.90;;;;;;5036124;28;20201;-62
2022/01/22 14:08:42;;;;;;;1.80;1.70;;;6.70;99.90;;;;;;5034281;28;20225;-65
2022/01/22 14:11:11;;;;;;;1.90;1.80;;;6.70;99.90;;;;;;5035565;28;20304;-65
2022/01/22 14:13:40;;;;;;;1.80;1.70;;;6.70;99.90;;;;;;5032353;28;20311;-64
2022/01/22 14:16:16;;;;;;;1.80;1.70;;;6.70;99.90;;;;;;5035383;28;20685;-63
2022/01/22 14:18:44;;;;;;;1.80;1.70;;;6.70;99.90;;;;;;5035322;28;20574;-65
2022/01/22 14:21:17;;;;;;;1.90;1.80;;;6.70;99.90;;;;;;5034775;28;20736;-64
2022/01/22 14:23:46;;;;;;;1.80;1.70;;;6.70;99.90;;;;;;5034602;28;20232;-64
2022/01/22 14:26:15;;;;;;;2.00;1.90;;;6.70;99.90;;;;;;5035350;28;20683;-63
2022/01/22 14:28:45;;;;;;;2.00;1.90;;;6.70;99.90;;;;;;5036932;28;20639;-66
2022/01/22 14:31:21;;;;;;;2.00;1.90;;;6.70;99.90;;;;;;5035937;28;20281;-64